Time;durP1;ratioP1;P1;durP2;ratioP2;P2;SDS_P1;SDS_P2;PMS_P1;PMS_P2;Temp;Humidity;BMP_temperature;BMP_pressure;BME280_temperature;BME280_humidity;BME280_pressure;Samples;Min_cycle;Max_cycle;Signal;HPM_P1;HPM_P2
2023/02/19 00:00:44;;;;;;;17.67;14.32;;;;;;;12.19;100.00;101735.06;5231926;28;20036;-76
2023/02/19 00:03:15;;;;;;;19.38;15.05;;;;;;;12.12;100.00;101718.97;5219724;28;20026;-76
2023/02/19 00:05:47;;;;;;;18.63;15.18;;;;;;;12.19;100.00;101724.56;5235099;28;20026;-75
2023/02/19 00:08:18;;;;;;;17.20;14.27;;;;;;;12.17;100.00;101731.75;5236170;28;20028;-75
2023/02/19 00:10:49;;;;;;;21.00;14.45;;;;;;;12.18;100.00;101728.97;5232790;28;20426;-76
2023/02/19 00:13:21;;;;;;;18.55;13.82;;;;;;;12.12;100.00;101734.72;5232741;28;20026;-76
2023/02/19 00:15:52;;;;;;;21.02;14.82;;;;;;;12.11;100.00;101716.44;5237717;28;20033;-76
2023/02/19 00:18:23;;;;;;;17.55;13.93;;;;;;;12.12;100.00;101726.84;5220393;28;20398;-75
2023/02/19 00:20:56;;;;;;;18.02;13.57;;;;;;;12.11;100.00;101726.94;5238376;28;20044;-75
2023/02/19 00:23:27;;;;;;;19.60;13.65;;;;;;;12.11;100.00;101724.31;5236017;28;20168;-76
2023/02/19 00:26:10;;;;;;;21.85;14.30;;;;;;;12.30;100.00;101727.19;5237194;28;20712;-75
2023/02/19 00:28:41;;;;;;;18.00;13.05;;;;;;;12.16;100.00;101728.28;5237806;28;20047;-76
2023/02/19 00:31:23;;;;;;;16.48;11.38;;;;;;;12.26;100.00;101736.28;5235431;28;20025;-75
2023/02/19 00:33:58;;;;;;;17.45;12.00;;;;;;;12.14;100.00;101722.28;5235672;28;20383;-75
2023/02/19 00:36:30;;;;;;;16.17;11.93;;;;;;;12.15;100.00;101738.88;5234214;28;20033;-76
2023/02/19 00:39:03;;;;;;;19.13;11.60;;;;;;;12.11;100.00;101733.03;5236984;28;20057;-75
2023/02/19 00:41:34;;;;;;;16.00;10.82;;;;;;;12.18;100.00;101736.88;5231888;28;20071;-75
2023/02/19 00:44:08;;;;;;;15.70;10.68;;;;;;;12.10;100.00;101726.13;5218579;28;20022;-77
2023/02/19 00:46:45;;;;;;;14.60;10.15;;;;;;;12.13;100.00;101730.31;5232987;28;20756;-78
2023/02/19 00:49:20;;;;;;;14.20;9.88;;;;;;;12.14;100.00;101731.97;5232185;28;20057;-77
2023/02/19 00:51:52;;;;;;;17.40;9.70;;;;;;;12.12;100.00;101739.13;5214518;28;20474;-77
2023/02/19 00:54:23;;;;;;;15.63;9.95;;;;;;;12.07;100.00;101728.97;5217301;28;20083;-76
2023/02/19 00:56:54;;;;;;;16.33;9.95;;;;;;;12.10;100.00;101735.78;5229412;28;20022;-77
2023/02/19 00:59:26;;;;;;;13.68;9.35;;;;;;;12.05;100.00;101728.28;5232683;28;20402;-77
2023/02/19 01:01:57;;;;;;;14.63;8.23;;;;;;;12.07;100.00;101741.28;5230330;28;20021;-76
2023/02/19 01:04:28;;;;;;;12.93;8.35;;;;;;;12.08;100.00;101737.69;5217043;28;20021;-77
2023/02/19 01:07:00;;;;;;;13.77;8.43;;;;;;;11.99;100.00;101752.38;5212517;28;20033;-77
2023/02/19 01:09:31;;;;;;;14.85;7.80;;;;;;;11.99;100.00;101741.03;5232252;28;20093;-77
2023/02/19 01:12:04;;;;;;;14.40;6.65;;;;;;;11.98;100.00;101744.63;5232956;28;20033;-78
2023/02/19 01:14:35;;;;;;;12.18;7.00;;;;;;;11.98;100.00;101744.63;5226088;28;20034;-76
2023/02/19 01:17:06;;;;;;;15.32;6.97;;;;;;;11.90;100.00;101739.94;5232940;28;20044;-76
2023/02/19 01:19:38;;;;;;;12.13;6.47;;;;;;;11.86;100.00;101747.22;5229851;28;20040;-78
2023/02/19 01:22:09;;;;;;;15.82;7.03;;;;;;;11.87;100.00;101743.63;5233784;28;20090;-77
2023/02/19 01:24:40;;;;;;;11.27;6.75;;;;;;;11.86;100.00;101749.84;5232223;28;20140;-77
2023/02/19 01:27:12;;;;;;;12.73;6.70;;;;;;;11.93;100.00;101763.31;5233281;28;20074;-76
2023/02/19 01:29:43;;;;;;;12.35;6.40;;;;;;;11.93;100.00;101761.56;5232344;28;20021;-78
2023/02/19 01:32:14;;;;;;;12.80;6.15;;;;;;;11.93;100.00;101758.06;5233090;28;20025;-77
2023/02/19 01:34:46;;;;;;;11.48;5.95;;;;;;;11.95;100.00;101755.34;5232865;28;20052;-77
2023/02/19 01:37:17;;;;;;;11.65;5.65;;;;;;;11.89;100.00;101769.75;5233699;28;20117;-77
2023/02/19 01:39:48;;;;;;;10.77;5.68;;;;;;;11.87;100.00;101758.56;5234944;28;20494;-76
2023/02/19 01:42:19;;;;;;;14.15;6.30;;;;;;;11.88;100.00;101760.22;5230497;28;20498;-77
2023/02/19 01:45:18;;;;;;;11.55;5.95;;;;;;;12.09;100.00;101768.28;5231748;28;20492;-77
2023/02/19 01:47:55;;;;;;;13.15;5.40;;;;;;;11.94;100.00;101778.16;5231873;28;20025;-76
2023/02/19 01:50:31;;;;;;;13.85;5.72;;;;;;;11.87;100.00;101766.44;5233120;28;20402;-77
2023/02/19 01:53:05;;;;;;;12.98;5.60;;;;;;;11.87;100.00;101777.78;5231037;28;20041;-78
2023/02/19 01:55:38;;;;;;;12.82;5.68;;;;;;;11.92;100.00;101782.66;5231925;28;20108;-77
2023/02/19 01:58:09;;;;;;;11.35;5.13;;;;;;;11.87;100.00;101767.25;5209944;28;20068;-76
2023/02/19 02:00:41;;;;;;;12.02;5.55;;;;;;;11.86;100.00;101770.84;5232456;28;20029;-78
2023/02/19 02:03:12;;;;;;;13.07;6.82;;;;;;;11.86;100.00;101765.59;5210203;28;20021;-76
2023/02/19 02:06:02;;;;;;;11.98;5.63;;;;;;;11.86;100.00;101764.78;5231494;28;20037;-78
2023/02/19 02:11:24;;;;;;;13.15;5.55;;;;;;;11.81;100.00;101754.56;5229348;28;20437;-76
2023/02/19 02:13:57;;;;;;;14.35;5.85;;;;;;;11.84;100.00;101758.78;5228663;28;20021;-79
2023/02/19 02:16:34;;;;;;;;;;;;;;;12.35;100.00;101767.09;5227369;28;20147;-77
2023/02/19 02:19:17;;;;;;;9.93;5.13;;;;;;;12.07;100.00;101767.53;5227503;28;19948;-77
2023/02/19 02:22:25;;;;;;;10.60;4.88;;;;;;;12.02;100.00;101765.28;5206349;28;20510;-78
2023/02/19 02:25:22;;;;;;;13.82;5.00;;;;;;;11.77;100.00;101774.13;5198820;28;20022;-77
2023/02/19 02:28:16;;;;;;;14.10;5.72;;;;;;;11.87;100.00;101777.78;5209803;28;20028;-76
2023/02/19 02:30:58;;;;;;;11.77;5.45;;;;;;;11.89;100.00;101769.75;5211469;28;20026;-77
2023/02/19 02:33:54;;;;;;;11.35;4.50;;;;;;;11.88;100.00;101776.81;5207516;28;20065;-76
2023/02/19 02:36:30;;;;;;;16.00;5.30;;;;;;;11.69;100.00;101766.00;5212786;28;20120;-77
2023/02/19 02:39:06;;;;;;;14.30;5.95;;;;;;;11.63;100.00;101776.94;5209718;28;20030;-78
2023/02/19 02:42:25;;;;;;;15.23;4.90;;;;;;;11.75;100.00;101768.16;5205718;28;20034;-77
2023/02/19 02:44:40;;;;;;;14.00;5.45;;;;;;;11.61;100.00;101782.31;5211668;28;20042;-77
2023/02/19 02:47:40;;;;;;;14.75;4.88;;;;;;;11.58;100.00;101771.19;5215627;28;20061;-77
2023/02/19 02:50:04;;;;;;;12.43;4.65;;;;;;;11.60;100.00;101778.03;5212951;28;20038;-77
2023/02/19 02:55:35;;;;;;;12.95;4.60;;;;;;;11.66;100.00;101787.22;5214101;28;20026;-77
2023/02/19 02:58:08;;;;;;;15.43;4.97;;;;;;;11.59;100.00;101783.38;5214022;28;20053;-78
2023/02/19 03:03:38;;;;;;;11.38;4.45;;;;;;;11.57;100.00;101796.63;5214108;28;20495;-77
2023/02/19 03:06:14;;;;;;;12.05;4.22;;;;;;;11.51;100.00;101802.31;5212473;28;20030;-77
2023/02/19 03:08:58;;;;;;;15.38;5.35;;;;;;;11.51;100.00;101790.97;5214165;28;20053;-76
2023/02/19 03:20:23;;;;;;;11.65;3.95;;;;;;;11.27;100.00;101794.44;5214630;28;20049;-76
2023/02/19 03:22:55;;;;;;;11.48;4.00;;;;;;;11.24;100.00;101805.16;5227693;28;20092;-77
2023/02/19 03:29:21;;;;;;;16.30;4.88;;;;;;;11.24;100.00;101807.78;5236748;28;20041;-78
2023/02/19 03:31:19;;;;;;;12.85;3.35;;;;;;;11.20;100.00;101808.94;5235684;28;20121;-77
2023/02/19 03:33:56;;;;;;;14.75;4.30;;;;;;;11.27;100.00;101809.34;5235604;28;20087;-77
2023/02/19 03:36:39;;;;;;;15.65;5.13;;;;;;;11.27;100.00;101799.69;5235810;28;20398;-77
2023/02/19 03:39:16;;;;;;;14.35;4.40;;;;;;;11.31;100.00;101809.00;5232697;28;20087;-77
2023/02/19 03:42:19;;;;;;;18.77;3.80;;;;;;;11.48;100.00;101812.19;5235005;28;20026;-77
2023/02/19 03:45:06;;;;;;;13.65;3.83;;;;;;;11.36;100.00;101822.63;5234272;28;20033;-76
2023/02/19 03:47:52;;;;;;;13.20;3.45;;;;;;;11.31;100.00;101814.25;5233191;28;20028;-77
2023/02/19 03:50:39;;;;;;;14.52;4.07;;;;;;;11.33;100.00;101822.88;5234133;28;20465;-76
2023/02/19 03:53:20;;;;;;;13.68;3.92;;;;;;;11.21;100.00;101821.09;5236309;28;20502;-76
2023/02/19 03:55:56;;;;;;;17.38;3.63;;;;;;;11.24;100.00;101828.75;5230873;28;20021;-76
2023/02/19 03:58:43;;;;;;;14.70;5.00;;;;;;;11.20;100.00;101833.38;5234670;28;20027;-77
2023/02/19 04:01:18;;;;;;;12.40;3.03;;;;;;;11.12;100.00;101835.72;5232429;28;20030;-76
2023/02/19 04:04:01;;;;;;;13.30;3.60;;;;;;;11.17;100.00;101835.38;5231726;28;20136;-77
2023/02/19 04:06:35;;;;;;;15.10;3.90;;;;;;;11.05;100.00;101844.13;5233130;28;20104;-76
2023/02/19 04:09:09;;;;;;;13.43;3.75;;;;;;;11.03;100.00;101849.50;5231543;28;20060;-76
2023/02/19 04:11:41;;;;;;;11.55;3.30;;;;;;;10.91;100.00;101853.84;5230052;28;20402;-78
2023/02/19 04:14:19;;;;;;;13.15;3.65;;;;;;;11.02;100.00;101854.84;5230805;28;20032;-76
2023/02/19 04:16:57;;;;;;;13.57;3.63;;;;;;;11.05;100.00;101859.88;5233150;28;20040;-77
2023/02/19 04:19:32;;;;;;;10.63;2.80;;;;;;;11.05;100.00;101849.38;5233011;28;20025;-77
2023/02/19 04:22:06;;;;;;;13.88;3.80;;;;;;;11.01;100.00;101858.41;5230861;28;20049;-77
2023/02/19 04:24:42;;;;;;;14.55;3.50;;;;;;;11.00;100.00;101848.88;5233676;28;20119;-77
2023/02/19 04:27:13;;;;;;;14.85;4.15;;;;;;;10.97;100.00;101863.03;5210303;28;20508;-77
2023/02/19 04:29:45;;;;;;;13.00;3.90;;;;;;;11.00;100.00;101862.81;5229749;28;20029;-77
2023/02/19 04:32:16;;;;;;;12.82;3.78;;;;;;;11.00;100.00;101869.84;5230160;28;20033;-77
2023/02/19 04:34:47;;;;;;;13.77;3.40;;;;;;;11.01;100.00;101879.38;5234159;28;20471;-77
2023/02/19 04:37:19;;;;;;;14.93;3.53;;;;;;;10.98;100.00;101877.81;5214939;28;20079;-77
2023/02/19 04:39:50;;;;;;;13.73;3.08;;;;;;;10.97;100.00;101881.38;5233828;28;20692;-76
2023/02/19 04:42:21;;;;;;;15.00;3.47;;;;;;;11.02;100.00;101887.13;5232343;28;20029;-76
2023/02/19 04:44:53;;;;;;;14.25;4.05;;;;;;;10.97;100.00;101889.25;5231488;28;20053;-76
2023/02/19 04:47:24;;;;;;;12.65;3.38;;;;;;;10.96;100.00;101900.69;5233130;28;20037;-77
2023/02/19 04:49:55;;;;;;;15.90;3.88;;;;;;;10.91;100.00;101900.16;5233198;28;20025;-77
2023/02/19 04:52:26;;;;;;;12.55;3.72;;;;;;;10.91;100.00;101902.78;5244405;28;20033;-77
2023/02/19 04:54:58;;;;;;;13.50;3.63;;;;;;;10.89;100.00;101902.91;5258602;28;20033;-77
2023/02/19 04:57:29;;;;;;;12.32;3.53;;;;;;;10.86;100.00;101900.47;5230020;28;20037;-77
2023/02/19 05:00:01;;;;;;;9.57;2.90;;;;;;;10.87;100.00;101910.03;5233073;28;20048;-77
2023/02/19 05:02:32;;;;;;;11.65;3.75;;;;;;;10.91;100.00;101913.25;5231661;28;20084;-77
2023/02/19 05:05:04;;;;;;;11.15;3.20;;;;;;;10.82;100.00;101917.38;5230997;28;20033;-76
2023/02/19 05:07:35;;;;;;;11.88;3.47;;;;;;;10.78;100.00;101923.75;5232324;28;20021;-77
2023/02/19 05:10:07;;;;;;;12.77;4.18;;;;;;;10.79;100.00;101937.72;5232686;28;20037;-77
2023/02/19 05:12:38;;;;;;;12.10;3.78;;;;;;;10.77;100.00;101927.34;5232171;28;20032;-77
2023/02/19 05:15:09;;;;;;;11.23;3.25;;;;;;;10.79;100.00;101941.16;5231629;28;20056;-77
2023/02/19 05:17:40;;;;;;;17.52;4.10;;;;;;;10.78;100.00;101946.53;5233062;28;20091;-77
2023/02/19 05:20:12;;;;;;;13.32;3.90;;;;;;;10.78;100.00;101943.91;5232576;28;20476;-77
2023/02/19 05:22:44;;;;;;;10.57;3.22;;;;;;;10.76;100.00;101949.25;5230099;28;20526;-76
2023/02/19 05:25:15;;;;;;;14.30;3.65;;;;;;;10.73;100.00;101946.84;5233035;28;20029;-77
2023/02/19 05:27:46;;;;;;;16.25;3.20;;;;;;;10.76;100.00;101957.13;5214450;28;20059;-76
2023/02/19 05:30:18;;;;;;;12.77;3.70;;;;;;;10.75;100.00;101951.97;5233852;28;20478;-77
2023/02/19 05:32:49;;;;;;;13.85;3.50;;;;;;;10.71;100.00;101953.97;5232652;28;20557;-77
2023/02/19 05:35:20;;;;;;;15.88;4.10;;;;;;;10.62;100.00;101938.88;5230147;28;20029;-76
2023/02/19 05:37:51;;;;;;;17.30;4.13;;;;;;;10.70;100.00;101968.00;5233122;28;20053;-75
2023/02/19 05:40:23;;;;;;;14.02;3.35;;;;;;;10.75;100.00;101957.22;5234855;28;20028;-76
2023/02/19 05:42:54;;;;;;;13.32;3.60;;;;;;;10.66;100.00;101950.81;5233884;28;20079;-75
2023/02/19 05:45:25;;;;;;;14.50;3.92;;;;;;;10.65;100.00;101951.78;5231458;28;20025;-75
2023/02/19 05:47:57;;;;;;;10.32;3.40;;;;;;;10.69;100.00;101963.72;5232090;28;20379;-75
2023/02/19 05:50:30;;;;;;;11.50;3.50;;;;;;;10.65;100.00;101964.88;5231697;28;20122;-75
2023/02/19 05:53:04;;;;;;;17.73;4.15;;;;;;;10.74;100.00;101966.88;5229828;28;20037;-75
2023/02/19 05:55:35;;;;;;;18.52;3.90;;;;;;;10.58;100.00;101966.22;5224120;28;20694;-76
2023/02/19 05:58:07;;;;;;;13.45;3.55;;;;;;;10.61;100.00;101973.88;5231965;28;20033;-76
2023/02/19 06:00:38;;;;;;;13.35;3.53;;;;;;;10.61;100.00;101973.88;5229969;28;20030;-76
2023/02/19 06:03:09;;;;;;;18.13;3.97;;;;;;;10.59;100.00;101965.28;5228791;28;20037;-76
2023/02/19 06:05:41;;;;;;;14.20;4.80;;;;;;;10.55;100.00;101969.88;5230500;28;20033;-76
2023/02/19 06:08:14;;;;;;;11.77;3.23;;;;;;;10.54;100.00;101962.97;5229192;28;20131;-76
2023/02/19 06:10:45;;;;;;;15.63;4.70;;;;;;;10.48;100.00;101969.44;5231521;28;20033;-76
2023/02/19 06:13:17;;;;;;;12.80;3.95;;;;;;;10.47;100.00;101970.38;5215267;28;20298;-76
2023/02/19 06:15:48;;;;;;;13.63;3.63;;;;;;;10.48;100.00;101969.44;5229440;28;20108;-76
2023/02/19 06:18:19;;;;;;;12.18;3.67;;;;;;;10.50;100.00;101964.13;5229332;28;20036;-76
2023/02/19 06:20:51;;;;;;;14.85;3.55;;;;;;;10.47;100.00;101964.31;5213189;28;20025;-76
2023/02/19 06:23:22;;;;;;;12.65;3.75;;;;;;;10.52;100.00;101983.19;5229052;28;20065;-76
2023/02/19 06:25:53;;;;;;;15.52;4.18;;;;;;;10.49;100.00;101986.00;5224455;28;20044;-76
2023/02/19 06:28:25;;;;;;;18.80;4.53;;;;;;;10.40;100.00;101984.81;5231676;28;20025;-76
2023/02/19 06:30:57;;;;;;;12.65;3.95;;;;;;;10.43;100.00;101989.03;5232983;28;20029;-76
2023/02/19 06:33:29;;;;;;;15.07;3.30;;;;;;;10.44;100.00;101991.53;5231141;28;20096;-75
2023/02/19 06:36:02;;;;;;;16.10;3.92;;;;;;;10.45;100.00;101995.88;5231159;28;20163;-75
2023/02/19 06:38:34;;;;;;;16.95;3.78;;;;;;;10.45;100.00;102003.72;5232946;28;20033;-75
2023/02/19 06:41:06;;;;;;;14.35;4.03;;;;;;;10.46;100.00;102013.25;5225394;28;20662;-75
2023/02/19 06:43:37;;;;;;;12.32;3.75;;;;;;;10.44;100.00;102020.38;5230076;28;20033;-75
2023/02/19 06:46:10;;;;;;;18.77;4.05;;;;;;;10.48;100.00;102026.25;5230928;28;20512;-76
2023/02/19 06:48:43;;;;;;;13.52;4.60;;;;;;;10.43;100.00;102021.31;5229567;28;20057;-76
2023/02/19 06:51:25;;;;;;;13.95;3.90;;;;;;;10.47;100.00;102022.78;5231239;28;20113;-76
2023/02/19 06:53:58;;;;;;;16.85;3.92;;;;;;;10.47;100.00;102030.66;5230357;28;20109;-75
2023/02/19 06:56:35;;;;;;;12.45;4.22;;;;;;;10.52;100.00;102029.50;5231693;28;20025;-75
2023/02/19 06:59:10;;;;;;;11.98;3.63;;;;;;;10.47;100.00;102028.03;5210523;28;20145;-75
2023/02/19 07:01:43;;;;;;;18.60;4.70;;;;;;;10.46;100.00;102036.00;5229095;28;20064;-76
2023/02/19 07:04:14;;;;;;;13.23;4.93;;;;;;;10.47;100.00;102024.56;5231691;28;20120;-75
2023/02/19 07:06:45;;;;;;;14.90;4.65;;;;;;;10.44;100.00;102035.25;5227996;28;20120;-76
2023/02/19 07:09:17;;;;;;;12.00;4.85;;;;;;;10.46;100.00;102042.06;5211258;28;20053;-75
2023/02/19 07:11:48;;;;;;;14.02;4.53;;;;;;;10.53;100.00;102045.16;5227391;28;20034;-76
2023/02/19 07:14:20;;;;;;;19.42;4.63;;;;;;;10.55;100.00;102043.25;5230219;28;20029;-75
2023/02/19 07:16:51;;;;;;;11.82;3.85;;;;;;;10.51;100.00;102056.66;5232441;28;20441;-76
2023/02/19 07:19:22;;;;;;;9.88;4.10;;;;;;;10.53;100.00;102054.75;5215869;28;20017;-75
2023/02/19 07:21:54;;;;;;;13.88;4.32;;;;;;;10.53;100.00;102052.13;5231084;28;20045;-74
2023/02/19 07:24:25;;;;;;;14.38;4.70;;;;;;;10.51;100.00;102059.28;5230580;28;20022;-75
2023/02/19 07:26:56;;;;;;;14.07;4.68;;;;;;;10.47;100.00;102066.50;5228021;28;20033;-75
2023/02/19 07:29:28;;;;;;;12.73;4.25;;;;;;;10.46;100.00;102072.69;5227253;28;20029;-75
2023/02/19 07:31:59;;;;;;;12.10;5.35;;;;;;;10.39;100.00;102074.84;5226492;28;20025;-75
2023/02/19 07:34:30;;;;;;;9.63;4.10;;;;;;;10.39;100.00;102085.31;5233899;28;20470;-75
2023/02/19 07:37:01;;;;;;;11.68;4.60;;;;;;;10.32;100.00;102091.91;5230644;28;20467;-75
2023/02/19 07:39:33;;;;;;;11.40;4.47;;;;;;;10.35;100.00;102104.81;5224274;28;20155;-75
2023/02/19 07:42:04;;;;;;;14.57;4.75;;;;;;;10.38;100.00;102108.97;5214939;28;20036;-75
2023/02/19 07:44:35;;;;;;;12.82;4.55;;;;;;;10.36;100.00;102106.47;5235163;28;20025;-75
2023/02/19 07:47:07;;;;;;;12.77;4.35;;;;;;;10.35;100.00;102111.81;5235109;28;20033;-75
2023/02/19 07:49:38;;;;;;;13.93;5.20;;;;;;;10.33;100.00;102111.91;5214975;28;20044;-75
2023/02/19 07:52:09;;;;;;;11.88;4.95;;;;;;;10.36;100.00;102123.97;5233685;28;20033;-75
2023/02/19 07:54:40;;;;;;;12.23;4.72;;;;;;;10.32;100.00;102123.31;5214274;28;20060;-75
2023/02/19 07:57:13;;;;;;;12.57;4.55;;;;;;;10.31;100.00;102132.13;5232031;28;20079;-75
2023/02/19 07:59:44;;;;;;;10.88;4.75;;;;;;;10.30;100.00;102145.31;5213030;28;20026;-75
2023/02/19 08:05:09;;;;;;;10.50;5.38;;;;;;;10.26;100.00;102146.44;5231309;28;20041;-75
2023/02/19 08:07:40;;;;;;;7.85;4.35;;;;;;;10.21;100.00;102129.19;5225466;28;20185;-75
2023/02/19 08:16:01;;;;;;;11.00;5.72;;;;;;;10.51;100.00;102157.06;5228364;28;20033;-75
2023/02/19 08:18:33;;;;;;;13.50;6.13;;;;;;;10.43;100.00;102161.94;5229883;28;20061;-75
2023/02/19 08:21:04;;;;;;;11.32;5.72;;;;;;;10.42;100.00;102158.50;5230028;28;20057;-75
2023/02/19 08:23:36;;;;;;;12.95;5.68;;;;;;;10.39;100.00;102166.53;5227203;28;20048;-74
2023/02/19 08:26:08;;;;;;;10.75;4.93;;;;;;;10.42;100.00;102170.75;5230950;28;20067;-75
2023/02/19 08:28:40;;;;;;;11.80;4.85;;;;;;;10.44;100.00;102177.56;5233363;28;20140;-75
2023/02/19 08:31:12;;;;;;;10.77;5.90;;;;;;;10.46;100.00;102180.94;5217214;28;20034;-75
2023/02/19 08:33:43;;;;;;;12.48;6.18;;;;;;;10.48;100.00;102180.81;5229681;28;20033;-75
2023/02/19 08:36:14;;;;;;;14.05;5.88;;;;;;;10.52;100.00;102178.84;5214090;28;20036;-75
2023/02/19 08:38:46;;;;;;;11.48;6.05;;;;;;;10.50;100.00;102178.97;5230906;28;20380;-74
2023/02/19 08:41:17;;;;;;;14.82;6.00;;;;;;;10.59;100.00;102182.78;5226054;28;20055;-75
2023/02/19 08:43:48;;;;;;;12.75;6.57;;;;;;;10.63;100.00;102177.25;5230644;28;20025;-75
2023/02/19 08:46:21;;;;;;;16.95;7.25;;;;;;;10.69;100.00;102176.03;5231234;28;20092;-75
2023/02/19 08:48:52;;;;;;;13.32;7.03;;;;;;;10.75;100.00;102180.84;5231086;28;20026;-75
2023/02/19 08:51:24;;;;;;;14.00;6.90;;;;;;;10.75;100.00;102170.38;5234997;28;20048;-75
2023/02/19 08:53:55;;;;;;;10.43;6.53;;;;;;;10.82;100.00;102178.69;5233795;28;20033;-75
2023/02/19 08:56:26;;;;;;;11.88;7.68;;;;;;;10.80;100.00;102188.44;5232178;28;20032;-74
2023/02/19 08:58:57;;;;;;;18.65;7.88;;;;;;;10.77;100.00;102188.63;5227715;28;20087;-75
2023/02/19 09:01:29;;;;;;;16.77;8.57;;;;;;;10.85;100.00;102195.06;5231929;28;20029;-74
2023/02/19 09:04:00;;;;;;;12.50;8.13;;;;;;;10.90;100.00;102200.84;5226761;28;20041;-75
2023/02/19 09:06:31;;;;;;;13.35;7.50;;;;;;;10.92;100.00;102203.38;5224958;28;20029;-74
2023/02/19 09:09:03;;;;;;;11.05;7.38;;;;;;;11.01;100.00;102215.03;5229110;28;20057;-76
2023/02/19 09:11:37;;;;;;;10.00;6.30;;;;;;;11.09;100.00;102220.63;5229332;28;20036;-76
2023/02/19 09:14:08;;;;;;;12.57;6.55;;;;;;;11.13;100.00;102209.84;5228318;28;20029;-76
2023/02/19 09:16:39;;;;;;;14.57;6.28;;;;;;;11.09;100.00;102218.84;5227668;28;20059;-76
2023/02/19 09:19:10;;;;;;;9.85;5.05;;;;;;;11.08;100.00;102203.22;5233240;28;20115;-76
2023/02/19 09:21:42;;;;;;;15.00;5.20;;;;;;;11.09;100.00;102204.91;5226886;28;20064;-76
2023/02/19 09:24:13;;;;;;;10.32;4.97;;;;;;;11.05;100.00;102214.75;5227843;28;20095;-76
2023/02/19 09:26:48;;;;;;;13.07;5.75;;;;;;;11.15;100.00;102210.59;5219463;28;20508;-76
2023/02/19 09:29:23;;;;;;;9.30;5.18;;;;;;;11.17;100.00;102207.84;5228955;28;20553;-76
2023/02/19 09:31:59;;;;;;;9.95;5.15;;;;;;;11.11;100.00;102209.09;5220474;28;20100;-76
2023/02/19 09:34:30;;;;;;;13.48;6.10;;;;;;;11.12;100.00;102209.94;5232652;28;20056;-76
2023/02/19 09:37:01;;;;;;;11.98;5.68;;;;;;;11.19;100.00;102224.34;5227329;28;20113;-76
2023/02/19 09:39:34;;;;;;;11.40;6.07;;;;;;;11.27;100.00;102229.94;5222564;28;20411;-76
2023/02/19 09:42:14;;;;;;;11.25;6.72;;;;;;;11.41;100.00;102231.66;5230957;28;20057;-76
2023/02/19 09:44:51;;;;;;;10.68;6.50;;;;;;;11.35;100.00;102224.16;5231314;28;20103;-76
2023/02/19 09:47:28;;;;;;;15.20;7.22;;;;;;;11.43;100.00;102222.72;5211983;28;20364;-76
2023/02/19 09:50:06;;;;;;;12.30;7.32;;;;;;;11.35;100.00;102227.63;5230429;28;20105;-76
2023/02/19 09:52:42;;;;;;;13.10;7.00;;;;;;;11.30;100.00;102231.50;5227609;28;20029;-76
2023/02/19 09:55:30;;;;;;;12.68;7.75;;;;;;;11.52;100.00;102249.31;5230956;28;20017;-76
2023/02/19 09:58:14;;;;;;;16.05;8.05;;;;;;;11.39;100.00;102267.63;5231135;28;20556;-75
2023/02/19 10:00:48;;;;;;;12.13;7.20;;;;;;;11.37;100.00;102266.91;5228364;28;20128;-75
2023/02/19 10:03:33;;;;;;;13.35;8.18;;;;;;;11.40;100.00;102282.44;5213165;28;20034;-76
2023/02/19 10:06:26;;;;;;;11.70;8.23;;;;;;;11.29;100.00;102277.91;5227723;28;20065;-76
2023/02/19 10:09:19;;;;;;;11.40;6.90;;;;;;;11.63;100.00;102289.66;5227734;28;20061;-76
2023/02/19 10:11:52;;;;;;;13.00;7.15;;;;;;;11.45;100.00;102291.69;5224556;28;20292;-76
2023/02/19 10:14:40;;;;;;;11.25;7.15;;;;;;;11.61;100.00;102280.19;5221111;28;20466;-76
2023/02/19 10:17:22;;;;;;;13.30;7.53;;;;;;;11.50;100.00;102290.56;5224043;28;20049;-77
2023/02/19 10:19:55;;;;;;;12.27;8.00;;;;;;;11.29;100.00;102298.03;5222350;28;20112;-76
2023/02/19 10:22:26;;;;;;;14.43;9.65;;;;;;;11.25;100.00;102300.03;5225606;28;20042;-76
2023/02/19 10:24:58;;;;;;;12.63;9.27;;;;;;;11.23;100.00;102299.28;5229175;28;20038;-76
2023/02/19 10:27:30;;;;;;;12.70;9.80;;;;;;;11.29;100.00;102303.28;5227513;28;20032;-76
2023/02/19 10:30:01;;;;;;;15.52;11.18;;;;;;;11.37;100.00;102301.84;5231748;28;20033;-76
2023/02/19 10:32:32;;;;;;;13.35;10.60;;;;;;;11.31;100.00;102289.13;5227784;28;20029;-76
2023/02/19 10:35:11;;;;;;;14.75;10.90;;;;;;;11.59;100.00;102321.44;5226919;28;20187;-76
2023/02/19 10:37:45;;;;;;;14.90;10.70;;;;;;;11.47;100.00;102328.31;5218199;28;20450;-76
2023/02/19 10:40:18;;;;;;;15.77;10.65;;;;;;;11.47;100.00;102341.44;5226807;28;20026;-76
2023/02/19 10:42:55;;;;;;;14.13;9.98;;;;;;;11.51;100.00;102334.22;5228116;28;20080;-76
2023/02/19 10:45:33;;;;;;;14.65;10.77;;;;;;;11.62;100.00;102350.13;5230961;28;20113;-76
2023/02/19 10:48:06;;;;;;;11.93;10.00;;;;;;;11.49;100.00;102344.84;5230437;28;20406;-76
2023/02/19 10:50:38;;;;;;;15.43;10.23;;;;;;;11.57;100.00;102344.34;5225965;28;20029;-76
2023/02/19 10:53:22;;;;;;;15.13;10.18;;;;;;;11.76;100.00;102351.84;5226498;28;20095;-76
2023/02/19 10:56:08;;;;;;;14.57;10.25;;;;;;;11.92;100.00;102357.78;5230876;28;20033;-76
2023/02/19 10:58:41;;;;;;;16.15;10.27;;;;;;;11.74;100.00;102354.56;5229166;28;20437;-76
2023/02/19 11:01:12;;;;;;;;;;;;;;;12.35;100.00;102357.53;5210446;28;20018;-76
2023/02/19 11:03:45;;;;;;;14.13;9.23;;;;;;;11.75;100.00;102364.13;5231901;28;19913;-76
2023/02/19 11:06:19;;;;;;;;;;;;;;;12.29;100.00;102356.16;5233760;28;20792;-76
2023/02/19 11:08:54;;;;;;;13.43;8.93;;;;;;;11.76;100.00;102352.69;5229227;28;20504;-75
2023/02/19 11:11:36;;;;;;;12.00;8.60;;;;;;;11.66;100.00;102357.69;5231305;28;20037;-75
2023/02/19 11:14:17;;;;;;;9.45;7.20;;;;;;;11.62;100.00;102342.25;5233551;28;20037;-75
2023/02/19 11:16:57;;;;;;;9.55;7.43;;;;;;;11.54;100.00;102339.28;5229627;28;20017;-75
2023/02/19 11:19:43;;;;;;;8.98;6.53;;;;;;;11.82;100.00;102346.16;5234067;28;20313;-75
2023/02/19 11:22:40;;;;;;;10.90;5.85;;;;;;;12.04;100.00;102346.47;5230995;28;20445;-75
2023/02/19 11:25:12;;;;;;;6.82;4.90;;;;;;;11.84;100.00;102349.59;5231691;28;20128;-75
2023/02/19 11:28:01;;;;;;;8.63;4.20;;;;;;;12.01;100.00;102335.31;5231254;28;20108;-75
2023/02/19 11:30:36;;;;;;;6.72;3.83;;;;;;;11.87;100.00;102338.88;5233118;28;20037;-75
2023/02/19 11:33:23;;;;;;;6.38;3.72;;;;;;;12.00;100.00;102338.91;5222515;28;20036;-75
2023/02/19 11:36:18;;;;;;;5.82;3.40;;;;;;;11.89;100.00;102335.22;5229010;28;20025;-75
2023/02/19 11:38:50;;;;;;;5.50;3.30;;;;;;;11.81;100.00;102345.34;5232821;28;20060;-75
2023/02/19 11:41:43;;;;;;;6.20;3.55;;;;;;;11.99;100.00;102345.09;5233670;28;20045;-75
2023/02/19 11:44:41;;;;;;;3.90;3.10;;;;;;;12.15;100.00;102343.13;5240238;28;20490;-75
2023/02/19 11:47:45;;;;;;;4.72;2.83;;;;;;;12.07;100.00;102338.38;5232993;28;20518;-75
2023/02/19 11:50:19;;;;;;;;;;;;;;;12.65;100.00;102336.16;5210907;28;20033;-75
2023/02/19 11:52:54;;;;;;;3.40;2.08;;;;;;;12.19;100.00;102344.59;5212196;28;19945;-75
2023/02/19 11:55:40;;;;;;;4.25;2.17;;;;;;;12.41;100.00;102338.72;5222227;28;20025;-75
2023/02/19 11:58:28;;;;;;;6.07;2.78;;;;;;;12.32;100.00;102334.94;5229229;28;20041;-75
2023/02/19 12:01:18;;;;;;;5.72;2.70;;;;;;;12.49;100.00;102346.06;5232352;28;20025;-75
2023/02/19 12:04:27;;;;;;;4.38;2.50;;;;;;;12.47;100.00;102348.00;5226525;28;20497;-74
2023/02/19 12:07:27;;;;;;;3.80;1.90;;;;;;;12.53;100.00;102344.91;5235921;28;20044;-74
2023/02/19 12:10:25;;;;;;;6.32;2.38;;;;;;;12.34;100.00;102338.28;5230583;28;20290;-75
2023/02/19 12:13:13;;;;;;;3.72;1.77;;;;;;;12.29;100.00;102334.31;5223314;28;20124;-75
2023/02/19 12:16:12;;;;;;;3.13;1.80;;;;;;;12.50;100.00;102332.84;5207106;28;20058;-74